• Join FlightAware (Why Join?)
  • Login
  • US Flag 
10:04AM EDT


 

Airport Tracker/Info


-or-


 

Live Flight TrackerFlight Track Log ✈ N550JG ✈ 15-Nov-2013 ✈ KAMG - KAPF

Flight Track Log - Related Links

Times and Time Zones

All times are in EST time to prevent confusion due to time zone crossing. See the N550JG flight status page for this flight to view local times or setup timezone preferences in your user account.

Time Position Orientation Groundspeed Altitude Reporting Facility
EST Latitude Longitude Course Direction KTS MPH feet Rate Location/Type
02:49PM 31.4394 -82.5150 192° South 139 160 3,200  Level Jacksonville Center
02:50PM 31.4186 -82.5200 192° South 114 131 3,800 540 Climbing Jacksonville Center
02:51PM 31.3914 -82.5250 189° South 101 116 4,300 540 Climbing Jacksonville Center
02:52PM 31.3664 -82.5228 176° South 95 109 4,900 300 Climbing Jacksonville Center
02:53PM 31.3372 -82.5253 184° South 103 119 4,900  Level Jacksonville Center
02:54PM 31.3036 -82.5253 180° South 115 132 4,900  Level Jacksonville Center
02:55PM 31.2683 -82.5231 177° South 126 145 5,000 300 Climbing Jacksonville Center
02:56PM 31.2411 -82.5039 149° Southeast 113 130 5,500 480 Climbing Jacksonville Center
02:57PM 31.2158 -82.4869 150° Southeast 113 130 6,000 420 Climbing Jacksonville Center
02:58PM 31.1908 -82.4700 150° Southeast 108 124 6,400 360 Climbing Jacksonville Center
02:59PM 31.1656 -82.4508 147° Southeast 108 124 6,800 300 Climbing Jacksonville Center
03:00PM 31.1447 -82.4289 138° Southeast 103 119 7,000 60 Climbing Jacksonville Center
03:01PM 31.1153 -82.3975 138° Southeast 115 132 7,000 -60 Level Jacksonville Center
03:02PM 31.0903 -82.3711 138° Southeast 126 145 6,900 -60 Descending Jacksonville Center
03:03PM 31.0628 -82.3397 136° Southeast 126 145 6,900  Level Jacksonville Center
03:03PM 31.0483 -82.3228 135° Southeast 132 152 6,900 60 Level Jacksonville Center
03:04PM 31.0378 -82.3083 130° Southeast 131 151 7,000 120 Climbing Jacksonville Center
03:04PM 31.0272 -82.2986 142° Southeast 131 151 7,000  Level Jacksonville Center
03:05PM 31.0106 -82.2792 135° Southeast 131 151 7,000 -120 Level Jacksonville Center
03:05PM 30.9958 -82.2625 136° Southeast 135 155 6,900  Descending Jacksonville Center
03:06PM 30.9831 -82.2481 136° Southeast 136 157 7,000 60 Climbing Jacksonville Center
03:06PM 30.9767 -82.2336 117° Southeast 138 159 7,000  Level Jacksonville Center
03:07PM 30.9581 -82.2167 142° Southeast 136 157 7,000 -120 Level Jacksonville Center
03:07PM 30.9433 -82.2022 140° Southeast 130 150 6,900 -120 Descending Jacksonville Center
03:08PM 30.9286 -82.1950 157° South 131 151 6,900  Level Jacksonville Center
03:08PM 30.9097 -82.1881 162° South 123 142 6,900  Level Jacksonville Center
03:09PM 30.8950 -82.1833 165° South 120 138 6,900  Level Jacksonville Center
03:09PM 30.8764 -82.1761 162° South 121 139 6,900  Level Jacksonville Center
03:10PM 30.8636 -82.1739 172° South 120 138 6,900  Level Jacksonville Center
03:10PM 30.8450 -82.1667 162° South 121 139 6,900 60 Level Jacksonville Center
03:11PM 30.8303 -82.1667 180° South 120 138 7,000  Climbing Jacksonville Center
03:11PM 30.8136 -82.1717 194° South 122 140 6,900 -120 Descending Jacksonville Center
03:12PM 30.7969 -82.1719 181° South 120 138 6,900 60 Level Jacksonville Center
03:12PM 30.7803 -82.1744 187° South 121 139 7,000  Climbing Jacksonville Center
03:13PM 30.7636 -82.1722 173° South 120 138 6,900 -120 Descending Jacksonville Center
03:13PM 30.7447 -82.1722 180° South 124 143 6,900  Level Jacksonville Center
03:14PM 30.7050 -82.1725 180° South 125 144 6,900  Level Jacksonville Center
03:15PM 30.6694 -82.1728 180° South 127 146 6,900  Level Jacksonville Center
03:16PM 30.6339 -82.1706 177° South 125 144 7,000  Climbing Jacksonville Center
03:17PM 30.5964 -82.1711 181° South 128 147 7,000 -60 Level Jacksonville Center
03:18PM 30.5608 -82.1711 180° South 127 146 6,900 -60 Descending Jacksonville Center
03:19PM 30.5256 -82.1692 177° South 127 146 6,900  Level Jacksonville Center
03:20PM 30.4942 -82.1717 184° South 127 146 6,900  Level Jacksonville Center
03:21PM 30.4586 -82.1672 174° South 128 147 7,000  Climbing Jacksonville Center
03:23PM 30.4169 -82.1675 180° South 127 146 7,000 -60 Level Jacksonville Center
03:23PM 30.3856 -82.1678 180° South 128 147 6,900 -60 Descending Jacksonville Center
03:25PM 30.3458 -82.1656 177° South 128 147 6,900  Level Jacksonville Center
03:27PM 30.2728 -82.1639 179° South 168 193 6,900  Level Jacksonville Center
03:28PM 30.2414 -82.1639 180° South 122 140 7,000  Climbing Jacksonville Center
03:29PM 30.2061 -82.1642 180° South 125 144 6,900 -60 Descending Jacksonville Center
03:29PM 30.1725 -82.1644 180° South 124 143 6,900  Level Jacksonville Center
03:30PM 30.1369 -82.1625 177° South 124 143 6,900  Level Jacksonville Center
03:31PM 30.1017 -82.1628 180° South 123 142 6,900  Level Jacksonville Center
03:32PM 30.0703 -82.1606 176° South 124 143 6,900  Level Jacksonville Center
03:34PM 30.0328 -82.1608 180° South 125 144 6,900  Level Jacksonville Center
03:35PM 29.9931 -82.1611 180° South 126 145 6,900  Level Jacksonville Center
03:36PM 29.9617 -82.1614 180° South 128 147 6,900  Level Jacksonville Center
03:37PM 29.9219 -82.1592 177° South 130 150 7,000  Climbing Jacksonville Center
03:38PM 29.8844 -82.1572 177° South 131 151 6,900 -60 Descending Jacksonville Center
03:39PM 29.8469 -82.1550 177° South 130 150 6,900  Level Jacksonville Center
03:40PM 29.8114 -82.1553 180° South 131 151 6,900  Level Jacksonville Center
03:41PM 29.7717 -82.1581 183° South 131 151 6,900  Level Jacksonville Center
03:42PM 29.7319 -82.1558 177° South 132 152 6,900  Level Jacksonville Center
03:43PM 29.6986 -82.1536 177° South 131 151 6,900  Level Jacksonville Center
03:44PM 29.6589 -82.1542 181° South 133 153 6,900  Level Jacksonville Center
03:45PM 29.6233 -82.1544 180° South 131 151 7,000  Climbing Jacksonville Center
03:46PM 29.5858 -82.1522 177° South 125 144 6,900  Descending Jacksonville Center
03:47PM 29.5544 -82.1547 184° South 122 140 7,000  Climbing Jacksonville Center
03:48PM 29.5192 -82.1528 177° South 129 148 6,900 -60 Descending Jacksonville Center
03:49PM 29.4856 -82.1506 177° South 129 148 6,900  Level Jacksonville Center
03:50PM 29.4522 -82.1508 180° South 129 148 6,900  Level Jacksonville Center
03:51PM 29.4106 -82.1489 178° South 131 151 6,900  Level Jacksonville Center
03:52PM 29.3750 -82.1514 184° South 130 150 6,900  Level Jacksonville Center
03:53PM 29.3375 -82.1517 180° South 128 147 6,900  Level Jacksonville Center
03:54PM 29.3019 -82.1472 174° South 128 147 6,900  Level Jacksonville Center
03:55PM 29.2644 -82.1475 180° South 131 151 6,900  Level Jacksonville Center
03:56PM 29.2267 -82.1456 177° South 132 152 6,900  Level Jacksonville Center
03:57PM 29.1933 -82.1481 184° South 134 154 6,900  Level Jacksonville Center
03:58PM 29.1536 -82.1483 180° South 135 155 6,900  Level Jacksonville Center
03:59PM 29.1142 -82.1486 180° South 136 157 6,900  Level Jacksonville Center
04:00PM 29.0764 -82.1442 174° South 137 158 6,900  Level Jacksonville Center
04:01PM 29.0347 -82.1444 180° South 137 158 6,900  Level Jacksonville Center
04:02PM 28.9972 -82.1425 177° South 139 160 6,900  Level Jacksonville Center
04:03PM 28.9575 -82.1428 180° South 138 159 6,900  Level Jacksonville Center
04:04PM 28.9200 -82.1431 180° South 137 158 6,900  Level Jacksonville Center
04:05PM 28.8822 -82.1408 177° South 135 155 6,900  Level Jacksonville Center
04:06PM 28.8406 -82.1411 180° South 134 154 6,900  Level Jacksonville Center
04:07PM 28.8072 -82.1392 177° South 134 154 6,900  Level Jacksonville Center
04:08PM 28.7675 -82.1394 180° South 134 154 6,900  Level Jacksonville Center
04:10PM 28.6833 -82.1333 176° South 133 153 6,900  Level Tampa TRACON
04:11PM 28.6500 -82.1333 180° South 133 153 7,000  Climbing Tampa TRACON
04:13PM 28.6000 -82.1333 180° South 134 154 6,900  Descending Tampa TRACON
04:13PM 28.5667 -82.1167 156° South 134 154 7,000  Climbing Tampa TRACON
04:14PM 28.5333 -82.1167 180° South 133 153 7,000  Level Tampa TRACON
04:15PM 28.5000 -82.1000 156° South 136 157 7,000  Level Tampa TRACON
04:16PM 28.4667 -82.1000 180° South 134 154 7,000  Level Tampa TRACON
04:17PM 28.4333 -82.1000 180° South 131 151 7,000  Level Tampa TRACON
04:18PM 28.3833 -82.0833 164° South 137 158 7,000  Level Tampa TRACON
04:19PM 28.3500 -82.0833 180° South 137 158 7,000  Level Tampa TRACON
04:20PM 28.3167 -82.0833 180° South 142 163 7,000  Level Tampa TRACON
04:21PM 28.2667 -82.0667 164° South 140 161 7,000  Level Tampa TRACON
04:22PM 28.2333 -82.0667 180° South 139 160 7,000  Level Tampa TRACON
04:23PM 28.2000 -82.0500 156° South 137 158 7,000  Level Tampa TRACON
04:24PM 28.1667 -82.0500 180° South 139 160 7,000  Level Tampa TRACON
04:25PM 28.1167 -82.0333 164° South 135 155 7,000  Level Tampa TRACON
04:26PM 28.0833 -82.0333 180° South 138 159 7,000  Level Tampa TRACON
04:27PM 28.0500 -82.0333 180° South 138 159 7,000  Level Tampa TRACON
04:30PM 27.9706 -82.0097 165° South 121 139 7,000  Level Miami Center
04:31PM 27.9336 -81.9892 154° Southeast 128 147 7,000  Level Miami Center
04:32PM 27.8989 -81.9711 155° Southeast 133 153 7,100  Climbing Miami Center
04:33PM 27.8617 -81.9578 162° South 133 153 7,100  Level Miami Center
04:34PM 27.8247 -81.9444 162° South 138 159 7,100 -60 Level Miami Center
04:35PM 27.7875 -81.9286 159° South 144 166 7,000  Descending Miami Center
04:36PM 27.7525 -81.9153 161° South 144 166 7,100  Climbing Miami Center
04:37PM 27.7108 -81.9181 183° South 139 160 7,000 -60 Descending Miami Center
04:38PM 27.6750 -81.9236 188° South 144 166 7,000  Level Miami Center
04:39PM 27.6375 -81.9267 184° South 144 166 7,000  Level Miami Center
04:40PM 27.6039 -81.9300 185° South 144 166 7,100  Climbing Miami Center
04:41PM 27.5664 -81.9328 184° South 144 166 7,000  Descending Miami Center
04:42PM 27.5306 -81.9383 188° South 144 166 7,100  Climbing Miami Center
04:43PM 27.4950 -81.9414 184° South 144 166 7,100 -60 Level Miami Center
04:44PM 27.4572 -81.9444 184° South 144 166 7,000  Descending Miami Center
04:45PM 27.4217 -81.9475 184° South 144 166 7,100  Climbing Miami Center
04:46PM 27.3819 -81.9528 187° South 144 166 7,100  Level Miami Center
04:47PM 27.3464 -81.9558 184° South 144 166 7,100 -60 Level Miami Center
04:48PM 27.3086 -81.9589 184° South 144 166 7,000 -60 Descending Miami Center
04:49PM 27.2689 -81.9619 184° South 144 166 7,000 -60 Level Miami Center
04:50PM 27.2311 -81.9647 184° South 144 166 6,900 -60 Descending Miami Center
04:51PM 27.1936 -81.9678 184° South 144 166 6,900  Level Miami Center
04:52PM 27.1578 -81.9733 188° South 144 166 7,000  Climbing Miami Center
04:53PM 27.1181 -81.9761 184° South 144 166 7,000  Level Miami Center
04:54PM 27.0806 -81.9792 184° South 144 166 7,000 -60 Level Miami Center
04:55PM 27.0431 -81.9775 178° South 144 166 6,900  Descending Miami Center
04:56PM 27.0036 -81.9689 169° South 144 166 7,000  Climbing Miami Center
04:57PM 26.9683 -81.9603 168° South 137 158 7,000  Level Miami Center
04:59PM 26.9006 -81.9790 166° South  Level FlightAware Approximate
05:06PM 26.6599 -81.9132 166° South  Level FlightAware Approximate
05:07PM 26.6255 -81.9039 166° South  Level FlightAware Approximate
05:08PM 26.5911 -81.8945 166° South  Level FlightAware Approximate
05:09PM 26.5567 -81.8851 166° South  Level FlightAware Approximate
05:10PM 26.5226 -81.8742 163° South  Level FlightAware Approximate
05:11PM 26.4884 -81.8643 170° South  Level FlightAware Approximate
05:12PM 26.4536 -81.8574 170° South  Level FlightAware Approximate
05:13PM 26.4187 -81.8504 170° South  Level FlightAware Approximate
05:14PM 26.3847 -81.8393 163° South  Level FlightAware Approximate
05:15PM 26.3508 -81.8280 163° South  Level FlightAware Approximate
05:16PM 26.3169 -81.8167 163° South  Level FlightAware Approximate
05:17PM 26.2830 -81.8054 163° South  Level FlightAware Approximate
05:18PM 26.2491 -81.7941 163° South  Level FlightAware Approximate
05:19PM 26.2151 -81.7829 167° South  Level FlightAware Approximate
05:20PM 26.1806 -81.7743 167° South  Level FlightAware Approximate
05:21PM 26.1500 -81.7667 167° South  Level FlightAware Approximate
05:22PM 26.1524 -81.7756 167° South  Level Estimated
05:23PM 26.1524 -81.7756 167° South  Level Estimated
05:24PM 26.1524 -81.7756 167° South  Level Estimated
05:25PM 26.1524 -81.7756 167° South  Level Estimated
05:26PM 26.1524 -81.7756 167° South  Level Estimated
05:27PM 26.1524 -81.7756 167° South  Level Estimated
05:28PM 26.1524 -81.7756 167° South  Level Estimated
05:29PM 26.1524 -81.7756 167° South  Level Estimated
05:30PM 26.1524 -81.7756 167° South  Level Estimated
05:31PM 26.1524 -81.7756 167° South  Level Estimated
05:32PM 26.1524 -81.7756 167° South  Level Estimated
05:33PM 26.1524 -81.7756 167° South  Level Estimated
05:34PM 26.1524 -81.7756 167° South  Level Estimated